Time;durP1;ratioP1;P1;durP2;ratioP2;P2;SDS_P1;SDS_P2;PMS_P1;PMS_P2;Temp;Humidity;BMP_temperature;BMP_pressure;BME280_temperature;BME280_humidity;BME280_pressure;Samples;Min_cycle;Max_cycle;Signal;HPM_P1;HPM_P2
2022/04/03 00:00:42;;;;;;;;;;;;;;;8.86;50.19;98518.69;4494862;31;33144;-64
2022/04/03 00:03:10;;;;;;;;;;;;;;;8.70;50.79;98527.19;4485356;31;35793;-65
2022/04/03 00:05:41;;;;;;;;;;;;;;;8.22;51.40;98534.81;4484890;31;35401;-64
2022/04/03 00:08:09;;;;;;;;;;;;;;;8.70;51.31;98523.63;4481912;32;34804;-62
2022/04/03 00:10:38;;;;;;;;;;;;;;;8.38;51.81;98527.28;4482708;32;33137;-64
2022/04/03 00:13:05;;;;;;;;;;;;;;;8.39;51.57;98532.47;4480937;32;35833;-64
2022/04/03 00:15:36;;;;;;;;;;;;;;;8.70;50.89;98526.31;4482638;32;35134;-64
2022/04/03 00:18:04;;;;;;;;;;;;;;;8.52;51.73;98532.25;4481119;32;34812;-64
2022/04/03 00:20:32;;;;;;;;;;;;;;;8.61;51.12;98536.81;4482056;32;34315;-63
2022/04/03 00:23:00;;;;;;;;;;;;;;;8.40;51.30;98536.81;4481523;32;32917;-63
2022/04/03 00:25:28;;;;;;;;;;;;;;;8.59;51.75;98533.41;4482382;32;35235;-64
2022/04/03 00:27:56;;;;;;;;;;;;;;;8.42;51.35;98538.53;4485606;31;34382;-63
2022/04/03 00:30:23;;;;;;;;;;;;;;;8.33;51.34;98546.28;4485913;31;33336;-64
2022/04/03 00:32:51;;;;;;;;;;;;;;;8.16;52.20;98546.88;4487539;31;33832;-64
2022/04/03 00:35:20;;;;;;;;;;;;;;;7.85;53.20;98556.56;4484907;31;34123;-63
2022/04/03 00:37:48;;;;;;;;;;;;;;;7.69;53.33;98556.97;4484600;31;33897;-65
2022/04/03 00:40:17;;;;;;;;;;;;;;;7.50;54.50;98554.94;4487647;31;33205;-62
2022/04/03 00:42:45;;;;;;;;;;;;;;;7.62;54.36;98558.44;4486310;31;34403;-61
2022/04/03 00:45:13;;;;;;;;;;;;;;;7.66;54.08;98557.22;4479923;31;34165;-61
2022/04/03 00:47:42;;;;;;;;;;;;;;;7.66;54.01;98565.22;4485684;31;34217;-62
2022/04/03 00:50:11;;;;;;;;;;;;;;;7.73;53.39;98558.41;4481694;31;33331;-62
2022/04/03 00:52:41;;;;;;;;;;;;;;;7.63;54.23;98568.13;4481200;31;34962;-62
2022/04/03 00:55:11;;;;;;;;;;;;;;;7.55;54.72;98566.09;4479331;31;33146;-62
2022/04/03 00:57:41;;;;;;;;;;;;;;;7.78;53.08;98568.69;4481117;32;33952;-62
2022/04/03 01:00:12;;;;;;;;;;;;;;;7.53;54.17;98572.50;4471784;31;33459;-61
2022/04/03 01:02:41;;;;;;;;;;;;;;;6.24;57.99;98578.09;4486049;31;32721;-62
2022/04/03 01:05:10;;;;;;;;;;;;;;;7.14;55.97;98578.22;4481918;32;33643;-62
2022/04/03 01:07:38;;;;;;;;;;;;;;;7.29;55.17;98578.84;4492635;31;32826;-61
2022/04/03 01:10:07;;;;;;;;;;;;;;;6.84;56.04;98585.94;4494049;31;33166;-61
2022/04/03 01:12:40;;;;;;;;;;;;;;;6.82;55.71;98586.06;4492775;31;33958;-62
2022/04/03 01:15:19;;;;;;;;;;;;;;;7.20;55.31;98585.72;4483613;31;34136;-62
2022/04/03 01:17:47;;;;;;;;;;;;;;;6.99;55.83;98595.41;4491702;31;34205;-61
2022/04/03 01:20:18;;;;;;;;;;;;;;;7.49;54.46;98589.69;4484215;31;32326;-61
2022/04/03 01:22:47;;;;;;;;;;;;;;;7.38;54.71;98596.75;4480374;32;35079;-61
2022/04/03 01:25:16;;;;;;;;;;;;;;;7.51;54.04;98588.59;4481602;32;35846;-62
2022/04/03 01:27:45;;;;;;;;;;;;;;;7.21;55.22;98595.41;4484290;31;33831;-61
2022/04/03 01:30:15;;;;;;;;;;;;;;;7.39;54.66;98598.41;4496416;31;32137;-61
2022/04/03 01:32:46;;;;;;;;;;;;;;;7.69;53.96;98602.25;4485869;31;32685;-61
2022/04/03 01:35:16;;;;;;;;;;;;;;;7.37;54.31;98603.00;4492557;31;33770;-61
2022/04/03 01:37:45;;;;;;;;;;;;;;;7.68;53.56;98606.72;4495365;31;33730;-62
2022/04/03 01:40:16;;;;;;;;;;;;;;;7.76;53.19;98606.09;4482347;31;33128;-60
2022/04/03 01:42:46;;;;;;;;;;;;;;;8.00;52.50;98605.09;4484256;31;34021;-61
2022/04/03 01:45:15;;;;;;;;;;;;;;;8.14;52.34;98607.44;4482573;31;34464;-62
2022/04/03 01:47:44;;;;;;;;;;;;;;;8.11;52.08;98611.19;4485074;31;34072;-61
2022/04/03 01:50:13;;;;;;;;;;;;;;;8.19;52.17;98615.06;4493543;31;33281;-61
2022/04/03 01:52:42;;;;;;;;;;;;;;;8.21;51.94;98621.94;4498309;31;32940;-62
2022/04/03 01:55:11;;;;;;;;;;;;;;;8.27;51.86;98625.94;4484848;31;33172;-61
2022/04/03 01:57:42;;;;;;;;;;;;;;;8.34;51.65;98621.78;4482459;31;34197;-60
2022/04/03 02:00:11;;;;;;;;;;;;;;;8.57;50.96;98633.19;4484389;31;33244;-62
2022/04/03 02:02:40;;;;;;;;;;;;;;;8.60;50.84;98633.81;4484288;31;32777;-62
2022/04/03 02:05:11;;;;;;;;;;;;;;;8.78;50.38;98627.88;4481937;31;34431;-62
2022/04/03 02:07:41;;;;;;;;;;;;;;;8.66;50.67;98636.94;4483416;31;33963;-62
2022/04/03 02:10:12;;;;;;;;;;;;;;;8.90;49.89;98634.84;4496018;31;32429;-62
2022/04/03 02:12:43;;;;;;;;;;;;;;;8.68;50.45;98641.16;4482226;31;32886;-61
2022/04/03 02:15:12;;;;;;;;;;;;;;;8.82;50.07;98635.47;4481066;31;33347;-62
2022/04/03 02:17:44;;;;;;;;;;;;;;;8.86;49.98;98646.78;4486994;31;34362;-61
2022/04/03 02:20:20;;;;;;;;;;;;;;;8.97;49.68;98645.84;4482436;31;33325;-60
2022/04/03 02:22:48;;;;;;;;;;;;;;;9.13;49.22;98643.53;4481946;32;34580;-60
2022/04/03 02:25:16;;;;;;;;;;;;;;;9.03;49.50;98650.66;4483949;31;35434;-61
2022/04/03 02:27:46;;;;;;;;;;;;;;;9.00;49.73;98640.25;4482250;32;33649;-62
2022/04/03 02:30:15;;;;;;;;;;;;;;;7.73;53.61;98653.44;4482341;31;33518;-62
2022/04/03 02:32:44;;;;;;;;;;;;;;;7.35;52.66;98650.22;4481635;31;33003;-62
2022/04/03 02:35:13;;;;;;;;;;;;;;;7.35;53.31;98652.00;4487920;31;33894;-61
2022/04/03 02:37:42;;;;;;;;;;;;;;;7.98;52.64;98653.16;4482684;31;32609;-60
2022/04/03 02:40:14;;;;;;;;;;;;;;;7.94;53.07;98654.38;4486867;31;33491;-61
2022/04/03 02:42:44;;;;;;;;;;;;;;;7.85;52.91;98660.44;4491312;31;34224;-61
2022/04/03 02:45:13;;;;;;;;;;;;;;;7.39;55.08;98657.00;4481792;31;33424;-62
2022/04/03 02:47:47;;;;;;;;;;;;;;;8.33;52.04;98663.59;4487222;31;34235;-61
2022/04/03 02:50:16;;;;;;;;;;;;;;;8.63;50.79;98667.37;4488105;31;33244;-62
2022/04/03 02:52:44;;;;;;;;;;;;;;;8.08;53.43;98664.75;4481515;32;34015;-62
2022/04/03 02:55:13;;;;;;;;;;;;;;;8.19;51.83;98669.22;4481356;32;34093;-61
2022/04/03 02:57:42;;;;;;;;;;;;;;;8.55;50.43;98667.19;4482103;32;34692;-62
2022/04/03 03:00:14;;;;;;;;;;;;;;;8.43;50.94;98677.03;4481964;32;33372;-66
2022/04/03 03:02:47;;;;;;;;;;;;;;;8.65;51.01;98681.44;4481968;32;32948;-63
2022/04/03 03:05:22;;;;;;;;;;;;;;;8.66;50.66;98685.78;4482071;32;34399;-62
2022/04/03 03:07:56;;;;;;;;;;;;;;;8.51;51.41;98693.25;4482754;32;32839;-63
2022/04/03 03:10:25;;;;;;;;;;;;;;;8.67;50.85;98695.50;4498310;31;34496;-63
2022/04/03 03:12:54;;;;;;;;;;;;;;;8.48;50.79;98690.00;4495740;31;32955;-64
2022/04/03 03:15:23;;;;;;;;;;;;;;;8.96;49.87;98695.72;4468685;31;34173;-63
2022/04/03 03:17:52;;;;;;;;;;;;;;;9.15;49.07;98702.12;4497893;31;34696;-62
2022/04/03 03:20:22;;;;;;;;;;;;;;;9.33;48.86;98705.91;4491053;31;32193;-62
2022/04/03 03:22:52;;;;;;;;;;;;;;;9.10;49.76;98708.72;4482351;31;33862;-63
2022/04/03 03:25:25;;;;;;;;;;;;;;;9.50;48.59;98709.78;4491587;31;35574;-64
2022/04/03 03:27:54;;;;;;;;;;;;;;;9.51;48.77;98715.00;4482232;32;34201;-64
2022/04/03 03:30:25;;;;;;;;;;;;;;;9.83;47.58;98718.53;4482637;31;33289;-63
2022/04/03 03:32:53;;;;;;;;;;;;;;;9.31;49.08;98724.75;4481651;31;34165;-62
2022/04/03 03:35:22;;;;;;;;;;;;;;;9.41;49.33;98727.47;4481935;31;34392;-64
2022/04/03 03:37:50;;;;;;;;;;;;;;;9.44;48.97;98729.88;4488158;31;33011;-63
2022/04/03 03:40:19;;;;;;;;;;;;;;;9.69;48.52;98725.06;4482516;32;32055;-64
2022/04/03 03:42:51;;;;;;;;;;;;;;;9.26;49.40;98731.44;4482101;31;33428;-72
2022/04/03 03:45:19;;;;;;;;;;;;;;;9.59;48.62;98737.53;4484793;31;34658;-62
2022/04/03 03:47:49;;;;;;;;;;;;;;;9.67;48.21;98738.56;4489522;31;34284;-62
2022/04/03 03:50:19;;;;;;;;;;;;;;;9.27;49.24;98741.97;4482344;31;33489;-61
2022/04/03 03:52:52;;;;;;;;;;;;;;;9.65;48.30;98743.19;4486476;31;33940;-62
2022/04/03 03:55:26;;;;;;;;;;;;;;;9.71;48.04;98748.00;4483356;31;35122;-62
2022/04/03 03:57:55;;;;;;;;;;;;;;;9.35;49.15;98748.50;4492974;31;33665;-64
2022/04/03 04:00:25;;;;;;;;;;;;;;;9.45;48.28;98760.94;4494826;31;34181;-63
2022/04/03 04:02:54;;;;;;;;;;;;;;;9.81;47.94;98758.72;4485780;31;32846;-62
2022/04/03 04:05:24;;;;;;;;;;;;;;;9.71;48.25;98764.03;4483154;31;34670;-63
2022/04/03 04:07:53;;;;;;;;;;;;;;;9.63;48.41;98769.19;4491524;31;34311;-61
2022/04/03 04:10:22;;;;;;;;;;;;;;;9.09;49.59;98778.28;4482212;31;34027;-63
2022/04/03 04:12:51;;;;;;;;;;;;;;;9.77;47.76;98781.34;4480769;32;33691;-62
2022/04/03 04:15:20;;;;;;;;;;;;;;;9.76;47.91;98783.19;4480212;32;34390;-64
2022/04/03 04:17:48;;;;;;;;;;;;;;;9.53;48.53;98784.31;4479512;32;33529;-62
2022/04/03 04:20:19;;;;;;;;;;;;;;;9.78;47.81;98783.03;4481178;31;33391;-63
2022/04/03 04:22:49;;;;;;;;;;;;;;;9.84;47.83;98792.38;4488847;31;34078;-62
2022/04/03 04:25:20;;;;;;;;;;;;;;;9.66;48.09;98790.31;4494490;31;33138;-64
2022/04/03 04:27:49;;;;;;;;;;;;;;;9.91;47.47;98791.69;4493686;31;32872;-62
2022/04/03 04:30:18;;;;;;;;;;;;;;;9.56;47.79;98808.09;4497184;31;33596;-62
2022/04/03 04:32:47;;;;;;;;;;;;;;;9.57;47.96;98804.47;4486073;31;34342;-62
2022/04/03 04:35:17;;;;;;;;;;;;;;;9.75;47.60;98810.88;4498752;31;34063;-63
2022/04/03 04:37:48;;;;;;;;;;;;;;;9.82;47.38;98813.84;4490350;31;32841;-63
2022/04/03 04:40:16;;;;;;;;;;;;;;;9.86;46.98;98819.81;4483472;31;33341;-62
2022/04/03 04:42:45;;;;;;;;;;;;;;;9.84;47.07;98817.25;4489998;31;35162;-63
2022/04/03 04:45:15;;;;;;;;;;;;;;;9.87;46.98;98827.69;4497196;31;34563;-62
2022/04/03 04:47:48;;;;;;;;;;;;;;;9.97;46.90;98833.91;4492424;31;35227;-62
2022/04/03 04:50:21;;;;;;;;;;;;;;;10.01;46.44;98840.69;4494224;31;32123;-62
2022/04/03 04:52:50;;;;;;;;;;;;;;;9.76;47.51;98843.81;4488074;31;33924;-62
2022/04/03 04:55:20;;;;;;;;;;;;;;;9.93;46.89;98842.34;4483068;31;33020;-62
2022/04/03 04:57:53;;;;;;;;;;;;;;;10.01;46.62;98851.38;4495186;31;34059;-62
2022/04/03 05:00:24;;;;;;;;;;;;;;;9.59;48.43;98855.06;4495774;31;33097;-63
2022/04/03 05:02:53;;;;;;;;;;;;;;;9.54;48.31;98863.50;4487142;31;34058;-62
2022/04/03 05:05:22;;;;;;;;;;;;;;;9.69;48.15;98867.50;4487250;31;32981;-63
2022/04/03 05:07:52;;;;;;;;;;;;;;;10.01;47.06;98863.91;4488833;31;33905;-63
2022/04/03 05:10:22;;;;;;;;;;;;;;;10.14;47.00;98871.72;4496716;31;34863;-62
2022/04/03 05:12:54;;;;;;;;;;;;;;;10.13;46.77;98872.69;4484957;31;33633;-62
2022/04/03 05:15:23;;;;;;;;;;;;;;;10.16;46.66;98873.28;4492094;31;34334;-62
2022/04/03 05:17:52;;;;;;;;;;;;;;;10.15;46.48;98868.06;4469070;31;32672;-62
2022/04/03 05:20:20;;;;;;;;;;;;;;;10.12;46.32;98876.38;4495600;31;33182;-62
2022/04/03 05:22:50;;;;;;;;;;;;;;;10.17;46.25;98882.13;4497024;31;33879;-62
2022/04/03 05:25:20;;;;;;;;;;;;;;;10.12;46.37;98884.38;4490306;31;34201;-62
2022/04/03 05:27:47;;;;;;;;;;;;;;;9.94;46.82;98890.31;4490775;31;34008;-62
2022/04/03 05:30:16;;;;;;;;;;;;;;;9.53;47.59;98893.81;4487612;31;33446;-62
2022/04/03 05:32:44;;;;;;;;;;;;;;;9.45;47.95;98897.16;4482521;31;35178;-62
2022/04/03 05:35:14;;;;;;;;;;;;;;;9.39;48.26;98899.50;4483061;32;34450;-62
2022/04/03 05:37:44;;;;;;;;;;;;;;;9.33;48.56;98904.34;4486899;31;34952;-62
2022/04/03 05:40:13;;;;;;;;;;;;;;;9.36;48.47;98907.75;4484136;31;32063;-62
2022/04/03 05:42:41;;;;;;;;;;;;;;;9.46;48.56;98914.88;4482294;31;34176;-62
2022/04/03 05:45:10;;;;;;;;;;;;;;;9.57;48.28;98914.00;4483739;31;35085;-62
2022/04/03 05:47:38;;;;;;;;;;;;;;;8.90;49.87;98922.22;4491383;31;35115;-61
2022/04/03 05:50:11;;;;;;;;;;;;;;;9.03;49.16;98918.41;4491412;31;33186;-61
2022/04/03 05:52:41;;;;;;;;;;;;;;;9.30;48.91;98925.13;4491998;31;34889;-62
2022/04/03 05:55:09;;;;;;;;;;;;;;;9.27;48.42;98923.56;4488210;31;33315;-63
2022/04/03 05:57:38;;;;;;;;;;;;;;;9.18;48.83;98923.47;4483776;31;34115;-62
2022/04/03 06:00:06;;;;;;;;;;;;;;;9.04;49.28;98930.78;4486341;31;32989;-63
2022/04/03 06:02:54;;;;;;;;;;;;;;;9.03;49.05;98929.09;4490859;31;34852;-62
2022/04/03 06:05:30;;;;;;;;;;;;;;;9.05;49.76;98942.31;4488395;31;33896;-62
2022/04/03 06:08:01;;;;;;;;;;;;;;;8.92;50.42;98942.44;4482595;31;34185;-62
2022/04/03 06:10:30;;;;;;;;;;;;;;;8.81;50.44;98946.00;4489379;31;33262;-62
2022/04/03 06:13:00;;;;;;;;;;;;;;;8.39;51.72;98951.09;4489104;31;35135;-62
2022/04/03 06:15:36;;;;;;;;;;;;;;;8.25;51.47;98953.97;4483250;31;34655;-61
2022/04/03 06:18:06;;;;;;;;;;;;;;;8.62;50.65;98953.75;4487221;31;34061;-62
2022/04/03 06:20:35;;;;;;;;;;;;;;;8.56;51.04;98964.91;4491307;31;33029;-62
2022/04/03 06:23:13;;;;;;;;;;;;;;;8.27;51.39;98961.84;4485939;31;35677;-62
2022/04/03 06:25:43;;;;;;;;;;;;;;;8.09;52.49;98966.75;4484471;31;34325;-63
2022/04/03 06:28:11;;;;;;;;;;;;;;;8.33;51.90;98972.87;4486241;31;32665;-62
2022/04/03 06:30:39;;;;;;;;;;;;;;;8.17;52.03;98972.34;4494336;31;33264;-62
2022/04/03 06:33:08;;;;;;;;;;;;;;;8.52;52.13;98976.81;4494163;31;34841;-62
2022/04/03 06:35:36;;;;;;;;;;;;;;;8.44;52.25;98981.88;4492162;31;35445;-62
2022/04/03 06:38:10;;;;;;;;;;;;;;;8.57;51.17;98990.59;4491061;31;32687;-62
2022/04/03 06:40:44;;;;;;;;;;;;;;;8.07;52.81;98984.69;4486697;31;33487;-62
2022/04/03 06:43:13;;;;;;;;;;;;;;;8.41;51.90;98985.66;4491753;31;32586;-62
2022/04/03 06:45:41;;;;;;;;;;;;;;;8.01;52.91;98993.16;4480628;32;34205;-62
2022/04/03 06:48:09;;;;;;;;;;;;;;;8.37;52.14;98995.66;4480722;32;34781;-62
2022/04/03 06:50:38;;;;;;;;;;;;;;;8.45;52.43;99004.94;4483239;31;34326;-62
2022/04/03 06:53:07;;;;;;;;;;;;;;;8.99;50.52;99007.72;4484892;31;32742;-62
2022/04/03 06:55:35;;;;;;;;;;;;;;;8.70;51.66;99012.72;4492677;31;34142;-62
2022/04/03 06:58:03;;;;;;;;;;;;;;;9.08;49.74;99015.00;4490690;31;34128;-62
2022/04/03 07:00:34;;;;;;;;;;;;;;;8.69;51.68;99019.00;4486556;31;33128;-62
2022/04/03 07:03:04;;;;;;;;;;;;;;;9.02;50.81;99018.16;4487578;31;34041;-62
2022/04/03 07:05:32;;;;;;;;;;;;;;;8.90;51.25;99024.47;4491417;31;34248;-62
2022/04/03 07:08:01;;;;;;;;;;;;;;;8.88;51.28;99021.06;4485367;31;33943;-62
2022/04/03 07:10:30;;;;;;;;;;;;;;;8.74;52.06;99021.31;4481891;31;33371;-62
2022/04/03 07:12:59;;;;;;;;;;;;;;;8.00;53.61;99034.94;4494306;31;33940;-62
2022/04/03 07:15:29;;;;;;;;;;;;;;;8.24;53.84;99042.88;4484454;31;34151;-62
2022/04/03 07:17:57;;;;;;;;;;;;;;;8.13;52.42;99041.06;4474020;31;32978;-62
2022/04/03 07:20:29;;;;;;;;;;;;;;;8.02;53.54;99043.66;4492799;31;34193;-62
2022/04/03 07:22:59;;;;;;;;;;;;;;;7.74;55.07;99047.56;4495381;31;35206;-63
2022/04/03 07:25:29;;;;;;;;;;;;;;;8.08;53.85;99048.53;4487598;31;33262;-62
2022/04/03 07:27:59;;;;;;;;;;;;;;;7.84;54.50;99058.38;4490052;31;35091;-62
2022/04/03 07:30:30;;;;;;;;;;;;;;;7.94;53.73;99062.91;4486301;31;32479;-62
2022/04/03 07:33:01;;;;;;;;;;;;;;;8.09;53.96;99063.59;4488508;31;34497;-62
2022/04/03 07:35:31;;;;;;;;;;;;;;;8.46;53.64;99078.63;4485323;31;34137;-62
2022/04/03 07:37:59;;;;;;;;;;;;;;;8.10;53.31;99078.59;4485518;31;34161;-62
2022/04/03 07:40:27;;;;;;;;;;;;;;;8.20;53.77;99078.75;4485334;31;33982;-62
2022/04/03 07:43:17;;;;;;;;;;;;;;;7.94;54.15;99086.03;4475834;31;33878;-62
2022/04/03 07:45:45;;;;;;;;;;;;;;;7.32;55.22;99091.47;4486808;31;33983;-62
2022/04/03 07:48:19;;;;;;;;;;;;;;;8.07;53.46;99085.97;4486520;31;32977;-62
2022/04/03 07:50:51;;;;;;;;;;;;;;;7.08;55.44;99099.41;4486685;31;33992;-61
2022/04/03 07:53:20;;;;;;;;;;;;;;;7.91;53.48;99104.91;4491367;31;34067;-63
2022/04/03 07:55:49;;;;;;;;;;;;;;;7.09;55.47;99112.59;4489098;31;34266;-63
2022/04/03 07:58:18;;;;;;;;;;;;;;;6.89;56.36;99108.66;4486364;31;33933;-62
2022/04/03 08:00:48;;;;;;;;;;;;;;;6.79;57.26;99120.06;4484703;31;31885;-62
2022/04/03 08:03:17;;;;;;;;;;;;;;;7.11;56.19;99129.31;4476325;31;34633;-63
2022/04/03 08:05:48;;;;;;;;;;;;;;;7.77;54.45;99119.25;4484115;31;35468;-61
2022/04/03 08:08:16;;;;;;;;;;;;;;;7.39;54.16;99128.22;4489308;31;35822;-62
2022/04/03 08:10:47;;;;;;;;;;;;;;;7.43;54.98;99126.16;4493043;31;32253;-63
2022/04/03 08:13:15;;;;;;;;;;;;;;;8.00;53.62;99128.22;4483915;31;33965;-62
2022/04/03 08:15:45;;;;;;;;;;;;;;;7.68;53.43;99131.44;4487465;31;34042;-62
2022/04/03 08:18:13;;;;;;;;;;;;;;;6.50;55.42;99141.53;4495657;31;32944;-62
2022/04/03 08:20:44;;;;;;;;;;;;;;;6.62;57.36;99145.16;4486965;31;33365;-62
2022/04/03 08:23:13;;;;;;;;;;;;;;;5.68;59.33;99158.41;4486291;31;32679;-62
2022/04/03 08:25:45;;;;;;;;;;;;;;;6.58;55.88;99152.50;4468890;31;34162;-62
2022/04/03 08:28:17;;;;;;;;;;;;;;;7.12;55.75;99159.44;4485586;31;34209;-62
2022/04/03 08:30:47;;;;;;;;;;;;;;;6.50;57.59;99152.16;4485088;31;35766;-62
2022/04/03 08:33:19;;;;;;;;;;;;;;;7.04;55.90;99165.28;4471339;31;34946;-62
2022/04/03 08:35:52;;;;;;;;;;;;;;;6.84;56.88;99165.78;4485557;31;33102;-61
2022/04/03 08:38:31;;;;;;;;;;;;;;;6.85;56.46;99165.72;4453623;31;33800;-62
2022/04/03 08:41:01;;;;;;;;;;;;;;;7.02;56.81;99177.00;4487803;31;32093;-62
2022/04/03 08:43:34;;;;;;;;;;;;;;;6.77;56.39;99178.66;4489519;31;34654;-62
2022/04/03 08:46:05;;;;;;;;;;;;;;;7.86;54.23;99185.19;4488550;31;33867;-62
2022/04/03 08:48:35;;;;;;;;;;;;;;;8.04;54.17;99179.50;4486464;31;33441;-62
2022/04/03 08:51:05;;;;;;;;;;;;;;;7.35;53.46;99184.44;4476124;31;34525;-62
2022/04/03 08:53:34;;;;;;;;;;;;;;;7.54;54.03;99189.31;4489628;31;33046;-62
2022/04/03 08:56:05;;;;;;;;;;;;;;;7.22;55.24;99195.97;4482873;31;33003;-62
2022/04/03 08:58:32;;;;;;;;;;;;;;;7.04;54.97;99191.91;4482856;31;34131;-62
2022/04/03 09:01:02;;;;;;;;;;;;;;;6.96;56.88;99194.22;4492132;31;33389;-62
2022/04/03 09:03:31;;;;;;;;;;;;;;;7.26;56.13;99191.28;4476732;31;33018;-62
2022/04/03 09:06:13;;;;;;;;;;;;;;;7.12;55.98;99197.53;4492797;31;34450;-62
2022/04/03 09:08:44;;;;;;;;;;;;;;;7.43;56.01;99190.94;4493101;31;33690;-62
2022/04/03 09:11:16;;;;;;;;;;;;;;;7.83;54.64;99176.56;4499062;31;31872;-61
2022/04/03 09:13:45;;;;;;;;;;;;;;;8.65;52.45;99177.63;4494678;31;34953;-62
2022/04/03 09:16:14;;;;;;;;;;;;;;;8.77;52.01;99189.19;4479583;31;34422;-62
2022/04/03 09:18:43;;;;;;;;;;;;;;;9.04;50.99;99192.37;4485020;31;33453;-62
2022/04/03 09:21:32;;;;;;;;;;;;;;;8.15;53.72;99196.41;4488244;31;31567;-62
2022/04/03 09:24:01;;;;;;;;;;;;;;;9.17;51.28;99202.13;4476090;31;34545;-63
2022/04/03 09:26:33;;;;;;;;;;;;;;;8.91;51.47;99206.78;4480392;31;35748;-62
2022/04/03 09:29:05;;;;;;;;;;;;;;;8.66;52.95;99199.78;4486079;31;33573;-62
2022/04/03 09:31:34;;;;;;;;;;;;;;;9.23;51.14;99201.66;4487722;31;32180;-62
2022/04/03 09:34:03;;;;;;;;;;;;;;;9.21;51.57;99206.25;4472011;32;34484;-62
2022/04/03 09:36:32;;;;;;;;;;;;;;;10.00;50.29;99212.44;4467744;32;34339;-62
2022/04/03 09:39:28;;;;;;;;;;;;;;;9.95;50.54;99217.31;4470829;31;34035;-63
2022/04/03 09:41:57;;;;;;;;;;;;;;;9.99;48.96;99221.44;4473687;32;32249;-63
2022/04/03 09:44:34;;;;;;;;;;;;;;;9.31;50.18;99220.59;4475061;32;32873;-63
2022/04/03 09:47:16;;;;;;;;;;;;;;;9.54;49.91;99226.81;4471554;31;35204;-62
2022/04/03 09:49:52;;;;;;;;;;;;;;;10.11;49.50;99232.94;4473061;31;35004;-62
2022/04/03 09:52:36;;;;;;;;;;;;;;;9.54;49.74;99230.31;4473820;32;32374;-62
2022/04/03 09:55:06;;;;;;;;;;;;;;;9.65;50.47;99229.47;4470783;32;35263;-61
2022/04/03 09:57:39;;;;;;;;;;;;;;;9.27;48.49;99238.66;4473411;32;33300;-63
2022/04/03 10:00:28;;;;;;;;;;;;;;;9.37;48.23;99232.59;4467734;32;33944;-62
2022/04/03 10:03:00;;;;;;;;;;;;;;;9.89;47.18;99236.53;4477752;32;32343;-63
2022/04/03 10:05:29;;;;;;;;;;;;;;;10.21;47.30;99241.97;4470587;32;34365;-63
2022/04/03 10:07:59;;;;;;;;;;;;;;;10.15;47.27;99243.28;4467851;32;34114;-62
2022/04/03 10:10:27;;;;;;;;;;;;;;;9.06;49.42;99235.84;4476384;32;35143;-62
2022/04/03 10:12:55;;;;;;;;;;;;;;;9.12;49.20;99247.00;4476189;32;33184;-63
2022/04/03 10:15:24;;;;;;;;;;;;;;;9.38;47.63;99248.53;4479838;32;33182;-62
2022/04/03 10:17:53;;;;;;;;;;;;;;;9.44;48.63;99250.72;4466106;32;36736;-63
2022/04/03 10:20:30;;;;;;;;;;;;;;;9.51;46.60;99251.09;4467742;32;34323;-62
2022/04/03 10:23:04;;;;;;;;;;;;;;;9.64;47.37;99248.31;4477231;31;33540;-62
2022/04/03 10:25:35;;;;;;;;;;;;;;;10.43;46.20;99260.66;4473393;32;35086;-62
2022/04/03 10:28:05;;;;;;;;;;;;;;;10.18;44.67;99260.94;4467813;32;32605;-62
2022/04/03 10:30:38;;;;;;;;;;;;;;;9.78;45.63;99264.94;4475858;32;34293;-62
2022/04/03 10:33:08;;;;;;;;;;;;;;;10.36;45.26;99259.44;4469723;32;33346;-61
2022/04/03 10:35:36;;;;;;;;;;;;;;;10.67;43.29;99265.81;4479923;32;35122;-61
2022/04/03 10:38:05;;;;;;;;;;;;;;;10.77;42.99;99260.53;4481413;32;35154;-62
2022/04/03 10:40:36;;;;;;;;;;;;;;;10.53;43.56;99263.44;4482442;32;34109;-61
2022/04/03 10:43:08;;;;;;;;;;;;;;;10.38;45.95;99262.00;4481973;32;33217;-63
2022/04/03 10:45:40;;;;;;;;;;;;;;;10.82;43.72;99268.16;4480512;32;33204;-62
2022/04/03 10:48:26;;;;;;;;;;;;;;;10.42;43.42;99266.97;4484676;31;35603;-63
2022/04/03 10:51:05;;;;;;;;;;;;;;;10.41;43.30;99265.28;4492497;31;33982;-62
2022/04/03 10:53:35;;;;;;;;;;;;;;;10.20;43.85;99269.66;4491304;31;34349;-62
2022/04/03 10:56:09;;;;;;;;;;;;;;;10.35;42.39;99271.13;4494290;31;35269;-62
2022/04/03 10:58:39;;;;;;;;;;;;;;;10.77;42.90;99268.56;4475782;31;33510;-62
2022/04/03 11:01:09;;;;;;;;;;;;;;;10.80;42.59;99276.34;4483939;31;35034;-63
2022/04/03 11:03:38;;;;;;;;;;;;;;;10.89;42.52;99267.56;4482898;31;32826;-63
2022/04/03 11:06:20;;;;;;;;;;;;;;;11.64;41.28;99271.00;4486889;31;33612;-62
2022/04/03 11:08:58;;;;;;;;;;;;;;;11.51;42.22;99271.22;4487389;31;32870;-62
2022/04/03 11:11:37;;;;;;;;;;;;;;;11.05;41.54;99274.31;4492811;31;34629;-62
2022/04/03 11:14:07;;;;;;;;;;;;;;;11.14;41.24;99277.06;4493180;31;33072;-62
2022/04/03 11:16:53;;;;;;;;;;;;;;;11.11;40.14;99287.19;4489841;31;34312;-62
2022/04/03 11:19:41;;;;;;;;;;;;;;;11.14;39.14;99287.78;4484494;31;33155;-63
2022/04/03 11:22:17;;;;;;;;;;;;;;;11.01;40.29;99294.25;4488519;31;33721;-62
2022/04/03 11:24:51;;;;;;;;;;;;;;;11.17;39.79;99278.59;4475247;31;30517;-62
2022/04/03 11:27:21;;;;;;;;;;;;;;;10.91;40.93;99307.56;4474634;31;32733;-62
2022/04/03 11:29:52;;;;;;;;;;;;;;;10.94;40.10;99297.44;4471789;31;34436;-62
2022/04/03 11:32:23;;;;;;;;;;;;;;;10.83;41.43;99297.50;4478756;31;33066;-62
2022/04/03 11:35:01;;;;;;;;;;;;;;;10.89;39.72;99294.31;4457150;31;32827;-62
2022/04/03 11:37:32;;;;;;;;;;;;;;;11.95;38.81;99298.72;4485933;31;35317;-62
2022/04/03 11:40:06;;;;;;;;;;;;;;;12.35;38.50;99297.88;4476380;31;33875;-62
2022/04/03 11:42:36;;;;;;;;;;;;;;;12.55;38.81;99299.63;4488837;31;34310;-63
2022/04/03 11:45:07;;;;;;;;;;;;;;;12.25;37.53;99299.69;4465184;32;33381;-63
2022/04/03 11:47:40;;;;;;;;;;;;;;;11.87;38.64;99299.37;4475708;31;34271;-63
2022/04/03 11:50:15;;;;;;;;;;;;;;;11.70;36.33;99297.28;4484445;31;34204;-62
2022/04/03 11:53:08;;;;;;;;;;;;;;;11.26;37.82;99296.56;4494720;31;33065;-63
2022/04/03 11:55:37;;;;;;;;;;;;;;;11.10;37.65;99309.56;4471572;31;34386;-62
2022/04/03 11:58:08;;;;;;;;;;;;;;;10.22;38.41;99314.03;4467365;31;33624;-62
2022/04/03 12:00:44;;;;;;;;;;;;;;;11.01;38.75;99310.34;4489121;31;32942;-63
2022/04/03 12:03:13;;;;;;;;;;;;;;;10.62;39.87;99313.50;4474916;31;34652;-62
2022/04/03 12:05:42;;;;;;;;;;;;;;;10.47;40.07;99323.66;4476552;31;33251;-62
2022/04/03 12:08:13;;;;;;;;;;;;;;;10.89;39.27;99329.13;4478104;31;33871;-61
2022/04/03 12:10:41;;;;;;;;;;;;;;;11.58;37.93;99323.31;4476317;31;33278;-63
2022/04/03 12:13:17;;;;;;;;;;;;;;;11.04;39.04;99316.28;4466240;31;34352;-62
2022/04/03 12:15:46;;;;;;;;;;;;;;;10.91;38.54;99327.19;4466645;31;33853;-63
2022/04/03 12:18:27;;;;;;;;;;;;;;;10.95;38.28;99331.31;4482996;31;33300;-60
2022/04/03 12:20:57;;;;;;;;;;;;;;;11.80;37.81;99319.62;4471238;31;34120;-63
2022/04/03 12:23:26;;;;;;;;;;;;;;;11.52;38.33;99312.25;4470439;31;32785;-61
2022/04/03 12:25:56;;;;;;;;;;;;;;;11.58;38.12;99309.91;4469064;31;32250;-61
2022/04/03 12:28:24;;;;;;;;;;;;;;;11.68;36.88;99309.97;4464155;31;32655;-62
2022/04/03 12:30:59;;;;;;;;;;;;;;;12.37;35.62;99312.00;4489379;31;33022;-62
2022/04/03 12:33:35;;;;;;;;;;;;;;;12.24;36.13;99314.94;4481254;31;32811;-63
2022/04/03 12:36:07;;;;;;;;;;;;;;;12.35;35.99;99309.44;4488139;31;33214;-62
2022/04/03 12:38:49;;;;;;;;;;;;;;;12.94;34.79;99317.66;4476541;31;33699;-62
2022/04/03 12:41:21;;;;;;;;;;;;;;;12.75;33.84;99308.56;4484946;31;34119;-61
2022/04/03 12:43:50;;;;;;;;;;;;;;;12.42;34.08;99314.28;4494402;31;34314;-63
2022/04/03 12:46:21;;;;;;;;;;;;;;;12.67;36.62;99310.25;4466419;31;34204;-63
2022/04/03 12:48:51;;;;;;;;;;;;;;;12.82;34.24;99311.53;4467436;31;32924;-62
2022/04/03 12:51:20;;;;;;;;;;;;;;;13.09;33.69;99302.78;4487662;31;33065;-62
2022/04/03 12:53:50;;;;;;;;;;;;;;;12.50;35.14;99317.13;4476040;31;33701;-61
2022/04/03 12:56:18;;;;;;;;;;;;;;;12.41;36.19;99305.38;4491905;31;33123;-63
2022/04/03 12:58:50;;;;;;;;;;;;;;;12.41;35.41;99313.44;4490014;31;33088;-61
2022/04/03 13:01:18;;;;;;;;;;;;;;;12.50;34.76;99312.59;4493287;31;35499;-62
2022/04/03 13:03:49;;;;;;;;;;;;;;;11.71;34.13;99323.09;4474610;31;33955;-62
2022/04/03 13:06:28;;;;;;;;;;;;;;;12.28;35.57;99327.09;4491827;31;34229;-62
2022/04/03 13:09:00;;;;;;;;;;;;;;;11.57;35.15;99316.25;4487527;31;33090;-64
2022/04/03 13:11:29;;;;;;;;;;;;;;;11.48;34.98;99314.37;4462963;31;33139;-62
2022/04/03 13:14:16;;;;;;;;;;;;;;;11.43;35.44;99312.09;4485559;31;35489;-63